Time;durP1;ratioP1;P1;durP2;ratioP2;P2;SDS_P1;SDS_P2;PMS_P1;PMS_P2;Temp;Humidity;BMP_temperature;BMP_pressure;BME280_temperature;BME280_humidity;BME280_pressure;Samples;Min_cycle;Max_cycle;Signal;HPM_P1;HPM_P2
2024/01/02 00:00:35;;;;;;;22.42;12.55;;;;;;;;;;5042150;28;20018;-57
2024/01/02 00:03:01;;;;;;;17.00;10.95;;;;;;;;;;5042669;28;20029;-64
2024/01/02 00:05:28;;;;;;;19.92;11.45;;;;;;;;;;5043780;28;20017;-64
2024/01/02 00:07:54;;;;;;;19.30;11.63;;;;;;;;;;5043381;28;20055;-63
2024/01/02 00:10:22;;;;;;;26.85;17.77;;;;;;;;;;5042362;28;20043;-64
2024/01/02 00:12:48;;;;;;;23.25;11.85;;;;;;;;;;5042279;28;20066;-64
2024/01/02 00:15:15;;;;;;;20.33;10.32;;;;;;;;;;5043106;28;20021;-65
2024/01/02 00:17:42;;;;;;;19.40;10.27;;;;;;;;;;5043181;28;20081;-63
2024/01/02 00:20:09;;;;;;;18.55;10.43;;;;;;;;;;5043596;28;20021;-63
2024/01/02 00:22:35;;;;;;;15.75;10.65;;;;;;;;;;5043275;28;20021;-63
2024/01/02 00:25:03;;;;;;;15.60;10.70;;;;;;;;;;5043333;28;20025;-63
2024/01/02 00:27:29;;;;;;;13.20;9.20;;;;;;;;;;5042769;28;20088;-63
2024/01/02 00:29:56;;;;;;;13.25;8.98;;;;;;;;;;5043041;28;20025;-63
2024/01/02 00:32:23;;;;;;;16.23;9.32;;;;;;;;;;5042181;28;20025;-62
2024/01/02 00:34:50;;;;;;;16.88;9.10;;;;;;;;;;5042889;28;20025;-61
2024/01/02 00:37:17;;;;;;;16.70;9.15;;;;;;;;;;5043098;28;20025;-61
2024/01/02 00:39:43;;;;;;;15.73;10.13;;;;;;;;;;5043103;28;20025;-62
2024/01/02 00:42:10;;;;;;;17.40;9.88;;;;;;;;;;5042858;28;20021;-65
2024/01/02 00:44:37;;;;;;;20.92;12.02;;;;;;;;;;5042765;28;20044;-61
2024/01/02 00:47:03;;;;;;;17.98;11.52;;;;;;;;;;5042570;28;20221;-63
2024/01/02 00:49:30;;;;;;;14.45;9.60;;;;;;;;;;5042372;28;20024;-63
2024/01/02 00:51:57;;;;;;;16.45;10.45;;;;;;;;;;5042633;28;20041;-64
2024/01/02 00:54:23;;;;;;;12.80;8.85;;;;;;;;;;5042638;28;20042;-63
2024/01/02 00:56:50;;;;;;;14.88;8.55;;;;;;;;;;5042495;28;20017;-63
2024/01/02 00:59:16;;;;;;;15.68;8.68;;;;;;;;;;5042726;28;20025;-64
2024/01/02 01:01:43;;;;;;;20.10;8.88;;;;;;;;;;5042441;28;20048;-63
2024/01/02 01:04:10;;;;;;;11.45;8.40;;;;;;;;;;5042431;28;20043;-63
2024/01/02 01:06:36;;;;;;;17.17;12.65;;;;;;;;;;5042750;28;20032;-64
2024/01/02 01:09:03;;;;;;;23.65;16.17;;;;;;;;;;5042353;28;20071;-60
2024/01/02 01:11:30;;;;;;;26.15;17.58;;;;;;;;;;5042054;28;20049;-61
2024/01/02 01:13:56;;;;;;;25.42;16.13;;;;;;;;;;5042378;28;20026;-63
2024/01/02 01:16:23;;;;;;;24.88;17.33;;;;;;;;;;5042534;28;20076;-62
2024/01/02 01:18:50;;;;;;;25.90;18.10;;;;;;;;;;5042302;28;20017;-60
2024/01/02 01:21:17;;;;;;;27.13;18.15;;;;;;;;;;5042465;28;20082;-61
2024/01/02 01:23:43;;;;;;;29.00;19.45;;;;;;;;;;5042529;28;20029;-61
2024/01/02 01:26:10;;;;;;;26.98;17.90;;;;;;;;;;5042353;28;20085;-62
2024/01/02 01:28:36;;;;;;;26.30;17.92;;;;;;;;;;5042358;28;20033;-60
2024/01/02 01:31:03;;;;;;;70.50;19.42;;;;;;;;;;5042129;28;20056;-64
2024/01/02 01:33:30;;;;;;;39.08;16.38;;;;;;;;;;5042010;28;20052;-62
2024/01/02 01:35:56;;;;;;;28.92;15.02;;;;;;;;;;5042230;28;20026;-62
2024/01/02 01:38:23;;;;;;;28.40;14.60;;;;;;;;;;5041983;28;20024;-61
2024/01/02 01:40:50;;;;;;;23.02;12.32;;;;;;;;;;5042087;28;20063;-63
2024/01/02 01:43:17;;;;;;;25.80;12.57;;;;;;;;;;5041247;28;20017;-61
2024/01/02 01:45:43;;;;;;;28.42;9.95;;;;;;;;;;5066535;27;20025;-58
2024/01/02 01:48:10;;;;;;;28.98;9.85;;;;;;;;;;5028101;28;20049;-59
2024/01/02 01:50:37;;;;;;;13.55;7.88;;;;;;;;;;5032541;28;20248;-52
2024/01/02 01:53:04;;;;;;;17.65;8.75;;;;;;;;;;5095039;27;20130;-56
2024/01/02 01:55:31;;;;;;;25.23;9.82;;;;;;;;;;5061330;28;20374;-60
2024/01/02 01:57:58;;;;;;;12.68;8.52;;;;;;;;;;5056606;28;20047;-61
2024/01/02 02:00:25;;;;;;;10.63;7.35;;;;;;;;;;5038252;28;20022;-58
2024/01/02 02:02:54;;;;;;;12.55;7.25;;;;;;;;;;5060879;28;20073;-57
2024/01/02 02:05:23;;;;;;;12.43;6.65;;;;;;;;;;5060570;28;20059;-64
2024/01/02 02:07:49;;;;;;;13.00;6.93;;;;;;;;;;5060263;28;20052;-65
2024/01/02 02:10:16;;;;;;;15.00;7.68;;;;;;;;;;5061339;28;20094;-58
2024/01/02 02:12:43;;;;;;;12.27;6.65;;;;;;;;;;5045704;28;20101;-53
2024/01/02 02:15:10;;;;;;;11.90;7.22;;;;;;;;;;5041157;28;20025;-58
2024/01/02 02:17:36;;;;;;;16.25;7.25;;;;;;;;;;5058807;28;20019;-57
2024/01/02 02:20:03;;;;;;;16.05;7.85;;;;;;;;;;5097971;28;20114;-54
2024/01/02 02:22:34;;;;;;;9.93;7.05;;;;;;;;;;5029120;28;20319;-57
2024/01/02 02:25:02;;;;;;;13.20;6.68;;;;;;;;;;5040861;28;20029;-54
2024/01/02 02:27:29;;;;;;;9.38;7.07;;;;;;;;;;5040357;28;20056;-57
2024/01/02 02:29:56;;;;;;;9.75;6.80;;;;;;;;;;5040958;28;20209;-61
2024/01/02 02:32:22;;;;;;;13.55;7.25;;;;;;;;;;5040596;28;20025;-54
2024/01/02 02:34:49;;;;;;;10.57;6.57;;;;;;;;;;5040529;28;20041;-55
2024/01/02 02:37:15;;;;;;;11.80;6.28;;;;;;;;;;5040690;28;20022;-52
2024/01/02 02:39:42;;;;;;;12.77;6.60;;;;;;;;;;5040734;28;20131;-49
2024/01/02 02:42:09;;;;;;;12.85;7.15;;;;;;;;;;5040313;28;20028;-53
2024/01/02 02:44:35;;;;;;;9.82;6.78;;;;;;;;;;5040520;28;20029;-65
2024/01/02 02:47:02;;;;;;;10.15;6.43;;;;;;;;;;5040418;28;20030;-58
2024/01/02 02:49:29;;;;;;;11.27;6.63;;;;;;;;;;5040180;28;20067;-59
2024/01/02 02:51:56;;;;;;;11.93;6.82;;;;;;;;;;5040241;28;20145;-59
2024/01/02 02:54:22;;;;;;;13.30;7.13;;;;;;;;;;5040150;28;20042;-58
2024/01/02 02:56:49;;;;;;;12.10;7.10;;;;;;;;;;5040337;28;20021;-54
2024/01/02 02:59:16;;;;;;;12.00;7.20;;;;;;;;;;5040274;28;20022;-52
2024/01/02 03:01:42;;;;;;;10.48;7.25;;;;;;;;;;5040148;28;20018;-51
2024/01/02 03:04:09;;;;;;;10.07;6.90;;;;;;;;;;5040201;28;20070;-60
2024/01/02 03:06:35;;;;;;;9.77;6.90;;;;;;;;;;5039993;28;20022;-54
2024/01/02 03:09:03;;;;;;;9.75;6.70;;;;;;;;;;5040354;28;20022;-57
2024/01/02 03:11:30;;;;;;;9.93;6.60;;;;;;;;;;5039929;28;20084;-55
2024/01/02 03:13:56;;;;;;;9.10;6.78;;;;;;;;;;5040177;28;20028;-56
2024/01/02 03:16:24;;;;;;;11.25;6.55;;;;;;;;;;5040018;28;20017;-54
2024/01/02 03:18:51;;;;;;;7.57;6.38;;;;;;;;;;5039904;28;20022;-53
2024/01/02 03:21:17;;;;;;;11.02;6.25;;;;;;;;;;5042840;28;20090;-55
2024/01/02 03:23:44;;;;;;;9.93;6.47;;;;;;;;;;5043439;28;20373;-52
2024/01/02 03:26:13;;;;;;;11.27;6.28;;;;;;;;;;5043143;28;20030;-62
2024/01/02 03:28:40;;;;;;;17.27;7.32;;;;;;;;;;5043291;28;20025;-55
2024/01/02 03:31:07;;;;;;;10.73;6.55;;;;;;;;;;5043128;28;20032;-50
2024/01/02 03:33:33;;;;;;;8.43;5.93;;;;;;;;;;5042970;28;20021;-53
2024/01/02 03:36:00;;;;;;;12.15;6.53;;;;;;;;;;5043309;28;20361;-54
2024/01/02 03:38:26;;;;;;;12.18;6.60;;;;;;;;;;5043010;28;20242;-54
2024/01/02 03:40:53;;;;;;;10.20;6.40;;;;;;;;;;5043078;28;20022;-60
2024/01/02 03:43:20;;;;;;;10.55;6.72;;;;;;;;;;5042728;28;20013;-59
2024/01/02 03:45:46;;;;;;;7.88;6.10;;;;;;;;;;5043099;28;20325;-61
2024/01/02 03:48:13;;;;;;;9.90;6.45;;;;;;;;;;5043195;28;20342;-62
2024/01/02 03:50:39;;;;;;;12.00;6.72;;;;;;;;;;5042870;28;20030;-54
2024/01/02 03:53:06;;;;;;;12.98;6.97;;;;;;;;;;5042810;28;20078;-59
2024/01/02 03:55:33;;;;;;;8.93;6.50;;;;;;;;;;5043235;28;20229;-53
2024/01/02 03:57:59;;;;;;;9.27;6.70;;;;;;;;;;5042751;28;20244;-54
2024/01/02 04:00:26;;;;;;;9.40;7.30;;;;;;;;;;5043198;28;20052;-60
2024/01/02 04:02:52;;;;;;;12.30;7.05;;;;;;;;;;5042813;28;20018;-58
2024/01/02 04:05:19;;;;;;;13.23;7.82;;;;;;;;;;5042981;28;20331;-55
2024/01/02 04:07:48;;;;;;;10.23;7.35;;;;;;;;;;5042536;28;20029;-55
2024/01/02 04:10:14;;;;;;;10.13;6.90;;;;;;;;;;5043057;28;20030;-53
2024/01/02 04:12:41;;;;;;;10.45;6.80;;;;;;;;;;5042588;28;20029;-54
2024/01/02 04:15:08;;;;;;;9.77;6.68;;;;;;;;;;5042873;28;20313;-57
2024/01/02 04:17:34;;;;;;;12.30;6.70;;;;;;;;;;5042504;28;20029;-54
2024/01/02 04:20:01;;;;;;;9.10;6.97;;;;;;;;;;5042288;28;20028;-61
2024/01/02 04:22:28;;;;;;;9.27;6.50;;;;;;;;;;5042711;28;20021;-52
2024/01/02 04:24:54;;;;;;;7.93;6.88;;;;;;;;;;5042423;28;20029;-54
2024/01/02 04:27:21;;;;;;;12.52;7.22;;;;;;;;;;5042703;28;20171;-58
2024/01/02 04:29:47;;;;;;;11.45;6.85;;;;;;;;;;5042741;28;20217;-56
2024/01/02 04:32:15;;;;;;;8.93;6.82;;;;;;;;;;5042231;28;20042;-55
2024/01/02 04:34:41;;;;;;;8.30;6.38;;;;;;;;;;5042095;28;20225;-60
2024/01/02 04:37:09;;;;;;;9.30;7.13;;;;;;;;;;5042088;28;20085;-55
2024/01/02 04:39:36;;;;;;;8.25;6.90;;;;;;;;;;5042645;28;20336;-55
2024/01/02 04:42:03;;;;;;;8.27;6.20;;;;;;;;;;5042083;28;20274;-53
2024/01/02 04:44:29;;;;;;;8.32;6.30;;;;;;;;;;5042533;28;20032;-52
2024/01/02 04:46:56;;;;;;;9.07;6.35;;;;;;;;;;5042119;28;20029;-54
2024/01/02 04:49:23;;;;;;;12.40;6.68;;;;;;;;;;5041849;28;20025;-60
2024/01/02 04:51:49;;;;;;;7.80;5.97;;;;;;;;;;5041962;28;20025;-62
2024/01/02 04:54:17;;;;;;;10.65;6.40;;;;;;;;;;5042095;28;20202;-57
2024/01/02 04:56:44;;;;;;;7.65;5.82;;;;;;;;;;5041817;28;20021;-54
2024/01/02 04:59:10;;;;;;;6.95;6.10;;;;;;;;;;5042350;28;20021;-49
2024/01/02 05:01:37;;;;;;;9.27;6.90;;;;;;;;;;5042065;28;20036;-56
2024/01/02 05:04:04;;;;;;;9.32;6.30;;;;;;;;;;5041985;28;20025;-58
2024/01/02 05:06:31;;;;;;;11.30;7.95;;;;;;;;;;5041938;28;20485;-60
2024/01/02 05:08:57;;;;;;;13.85;6.78;;;;;;;;;;5041718;28;20086;-48
2024/01/02 05:11:24;;;;;;;9.52;6.40;;;;;;;;;;5041690;28;20041;-55
2024/01/02 05:13:50;;;;;;;12.50;7.03;;;;;;;;;;5041850;28;20029;-53
2024/01/02 05:16:17;;;;;;;11.20;6.65;;;;;;;;;;5031482;28;20067;-60
2024/01/02 05:18:44;;;;;;;9.70;6.55;;;;;;;;;;5022107;28;20341;-48
2024/01/02 05:21:10;;;;;;;11.98;6.75;;;;;;;;;;5021617;28;20362;-54
2024/01/02 05:23:37;;;;;;;11.98;6.78;;;;;;;;;;5022048;28;20054;-58
2024/01/02 05:26:04;;;;;;;7.63;6.30;;;;;;;;;;5021726;28;20029;-58
2024/01/02 05:28:30;;;;;;;7.78;5.75;;;;;;;;;;5021885;28;20029;-53
2024/01/02 05:30:57;;;;;;;7.28;5.88;;;;;;;;;;5021654;28;20025;-59
2024/01/02 05:33:23;;;;;;;7.25;6.10;;;;;;;;;;5021744;28;20030;-59
2024/01/02 05:35:50;;;;;;;10.57;6.57;;;;;;;;;;5021455;28;20039;-55
2024/01/02 05:38:16;;;;;;;8.73;6.50;;;;;;;;;;5021747;28;20332;-53
2024/01/02 05:40:43;;;;;;;8.82;5.65;;;;;;;;;;5021517;28;20021;-53
2024/01/02 05:43:10;;;;;;;8.60;6.10;;;;;;;;;;5020457;28;20064;-60
2024/01/02 05:45:36;;;;;;;8.73;5.82;;;;;;;;;;5021445;28;20045;-58
2024/01/02 05:48:04;;;;;;;8.35;6.32;;;;;;;;;;5021590;28;20029;-56
2024/01/02 05:50:30;;;;;;;7.88;6.07;;;;;;;;;;5021325;28;20326;-56
2024/01/02 05:52:58;;;;;;;7.70;6.18;;;;;;;;;;5021385;28;20384;-53
2024/01/02 05:55:25;;;;;;;7.65;5.80;;;;;;;;;;5021273;28;20050;-55
2024/01/02 05:57:51;;;;;;;6.80;5.93;;;;;;;;;;5021389;28;20022;-53
2024/01/02 06:00:18;;;;;;;8.68;5.95;;;;;;;;;;5021308;28;20018;-58
2024/01/02 06:02:44;;;;;;;8.95;5.88;;;;;;;;;;5021307;28;20030;-53
2024/01/02 06:05:11;;;;;;;8.02;5.95;;;;;;;;;;5021083;28;20049;-48
2024/01/02 06:07:38;;;;;;;9.02;6.20;;;;;;;;;;5021040;28;20030;-58
2024/01/02 06:10:04;;;;;;;7.75;6.00;;;;;;;;;;5021070;28;20026;-56
2024/01/02 06:12:31;;;;;;;8.93;5.97;;;;;;;;;;5020902;28;20022;-51
2024/01/02 06:14:58;;;;;;;11.95;6.18;;;;;;;;;;5020991;28;20089;-53
2024/01/02 06:17:24;;;;;;;8.80;6.28;;;;;;;;;;5020941;28;20014;-59
2024/01/02 06:19:51;;;;;;;8.35;5.95;;;;;;;;;;5020855;28;20026;-60
2024/01/02 06:22:17;;;;;;;8.93;5.97;;;;;;;;;;5020934;28;20060;-54
2024/01/02 06:24:44;;;;;;;7.68;6.45;;;;;;;;;;5020972;28;20333;-57
2024/01/02 06:27:10;;;;;;;8.50;6.20;;;;;;;;;;5020900;28;20022;-61
2024/01/02 06:29:37;;;;;;;8.90;6.40;;;;;;;;;;5021279;28;20037;-53
2024/01/02 06:32:04;;;;;;;7.47;6.30;;;;;;;;;;5020823;28;20026;-59
2024/01/02 06:34:30;;;;;;;10.57;6.40;;;;;;;;;;5021167;28;20030;-62
2024/01/02 06:36:57;;;;;;;9.82;6.68;;;;;;;;;;5020612;28;20022;-56
2024/01/02 06:39:23;;;;;;;11.18;6.65;;;;;;;;;;5021188;28;20081;-60
2024/01/02 06:41:50;;;;;;;8.13;6.22;;;;;;;;;;5020776;28;20050;-56
2024/01/02 06:44:17;;;;;;;8.27;6.43;;;;;;;;;;5027433;28;20370;-54
2024/01/02 06:46:43;;;;;;;9.50;6.25;;;;;;;;;;5034286;28;20033;-53
2024/01/02 06:49:10;;;;;;;6.43;5.82;;;;;;;;;;5021242;28;20228;-56
2024/01/02 06:51:36;;;;;;;10.40;6.57;;;;;;;;;;5020420;28;20054;-59
2024/01/02 06:54:03;;;;;;;11.65;6.75;;;;;;;;;;5021959;28;20054;-61
2024/01/02 06:56:30;;;;;;;10.93;6.05;;;;;;;;;;5024018;28;20310;-60
2024/01/02 06:58:56;;;;;;;8.05;6.18;;;;;;;;;;5024161;28;20294;-49
2024/01/02 07:01:23;;;;;;;9.77;6.25;;;;;;;;;;5023831;28;20014;-48
2024/01/02 07:03:49;;;;;;;10.40;6.45;;;;;;;;;;5024140;28;20026;-49
2024/01/02 07:06:17;;;;;;;6.80;6.05;;;;;;;;;;5023682;28;20089;-49
2024/01/02 07:08:43;;;;;;;8.20;6.97;;;;;;;;;;5024083;28;20037;-55
2024/01/02 07:11:10;;;;;;;9.93;6.70;;;;;;;;;;5023757;28;20046;-53
2024/01/02 07:13:36;;;;;;;9.82;6.40;;;;;;;;;;5023742;28;20029;-63
2024/01/02 07:16:03;;;;;;;11.15;6.40;;;;;;;;;;5023824;28;20022;-51
2024/01/02 07:18:30;;;;;;;6.55;5.95;;;;;;;;;;5023575;28;20071;-57
2024/01/02 07:20:57;;;;;;;6.60;5.65;;;;;;;;;;5023591;28;20328;-51
2024/01/02 07:23:24;;;;;;;10.82;6.65;;;;;;;;;;5023847;28;20029;-49
2024/01/02 07:25:51;;;;;;;8.32;6.05;;;;;;;;;;5023578;28;20018;-55
2024/01/02 07:28:18;;;;;;;12.65;6.40;;;;;;;;;;5023844;28;20089;-58
2024/01/02 07:30:47;;;;;;;10.55;6.28;;;;;;;;;;5023396;28;20214;-54
2024/01/02 07:33:14;;;;;;;7.30;5.95;;;;;;;;;;5026299;28;20036;-53
2024/01/02 07:35:41;;;;;;;7.70;5.93;;;;;;;;;;5043016;28;20247;-56
2024/01/02 07:38:07;;;;;;;8.90;6.20;;;;;;;;;;5043348;28;20018;-54
2024/01/02 07:40:34;;;;;;;9.15;6.70;;;;;;;;;;5043202;28;20061;-49
2024/01/02 07:43:01;;;;;;;6.55;5.70;;;;;;;;;;5043222;28;20021;-48
2024/01/02 07:45:28;;;;;;;7.38;5.82;;;;;;;;;;5042955;28;20044;-52
2024/01/02 07:47:54;;;;;;;7.40;6.07;;;;;;;;;;5043027;28;20088;-49
2024/01/02 07:50:21;;;;;;;10.57;6.22;;;;;;;;;;5042899;28;20025;-49
2024/01/02 07:52:47;;;;;;;8.70;5.60;;;;;;;;;;5042899;28;20054;-56
2024/01/02 07:55:14;;;;;;;7.60;6.03;;;;;;;;;;5042830;28;20084;-59
2024/01/02 07:57:41;;;;;;;7.60;6.00;;;;;;;;;;5042933;28;20021;-53
2024/01/02 08:00:07;;;;;;;7.43;6.28;;;;;;;;;;5042674;28;20029;-60
2024/01/02 08:02:34;;;;;;;8.55;5.90;;;;;;;;;;5042926;28;20033;-63
2024/01/02 08:05:01;;;;;;;9.38;6.18;;;;;;;;;;5042220;28;20344;-55
2024/01/02 08:07:27;;;;;;;8.77;6.15;;;;;;;;;;5042195;28;20025;-58
2024/01/02 08:09:54;;;;;;;8.40;6.45;;;;;;;;;;5042502;28;20021;-53
2024/01/02 08:12:20;;;;;;;7.47;6.47;;;;;;;;;;5050091;27;20247;-55
2024/01/02 08:14:47;;;;;;;10.55;5.97;;;;;;;;;;5085782;27;20319;-53
2024/01/02 08:17:14;;;;;;;8.73;6.85;;;;;;;;;;5146929;27;20043;-53
2024/01/02 08:19:41;;;;;;;8.43;6.15;;;;;;;;;;5146888;27;20027;-53
2024/01/02 08:22:08;;;;;;;7.22;6.10;;;;;;;;;;5146818;27;20015;-53
2024/01/02 08:24:34;;;;;;;7.18;5.90;;;;;;;;;;5072931;27;20029;-57
2024/01/02 08:27:01;;;;;;;7.07;6.32;;;;;;;;;;5062462;28;20036;-53
2024/01/02 08:29:28;;;;;;;7.57;6.38;;;;;;;;;;5062635;28;20069;-54
2024/01/02 08:31:54;;;;;;;8.82;5.70;;;;;;;;;;5062178;28;20056;-57
2024/01/02 08:34:21;;;;;;;7.82;6.38;;;;;;;;;;5099986;27;20011;-60
2024/01/02 08:36:47;;;;;;;7.63;5.90;;;;;;;;;;5146534;27;20034;-54
2024/01/02 08:39:14;;;;;;;7.07;5.57;;;;;;;;;;5146961;27;20015;-53
2024/01/02 08:41:41;;;;;;;6.75;6.05;;;;;;;;;;5146492;27;20043;-53
2024/01/02 08:44:07;;;;;;;8.73;5.95;;;;;;;;;;5146627;27;20070;-60
2024/01/02 08:46:34;;;;;;;7.05;6.00;;;;;;;;;;5146363;27;20063;-60
2024/01/02 08:49:00;;;;;;;8.13;6.30;;;;;;;;;;5146697;27;20015;-59
2024/01/02 08:51:27;;;;;;;8.60;6.45;;;;;;;;;;5146224;27;20027;-59
2024/01/02 08:53:54;;;;;;;8.70;6.07;;;;;;;;;;5146512;27;20205;-57
2024/01/02 08:56:21;;;;;;;6.65;5.80;;;;;;;;;;5080141;27;20083;-61
2024/01/02 08:58:47;;;;;;;7.03;6.10;;;;;;;;;;5061979;28;20028;-58
2024/01/02 09:01:16;;;;;;;6.60;5.90;;;;;;;;;;5061899;28;20020;-55
2024/01/02 09:03:42;;;;;;;8.52;6.13;;;;;;;;;;5061922;28;20025;-50
2024/01/02 09:06:09;;;;;;;9.82;6.68;;;;;;;;;;5084553;27;20094;-53
2024/01/02 09:08:35;;;;;;;8.45;6.10;;;;;;;;;;5127152;27;20038;-51
2024/01/02 09:11:02;;;;;;;10.05;6.30;;;;;;;;;;5116968;27;20044;-50
2024/01/02 09:13:28;;;;;;;8.15;6.22;;;;;;;;;;5044234;28;20036;-48
2024/01/02 09:15:55;;;;;;;8.98;6.07;;;;;;;;;;5117373;27;20026;-55
2024/01/02 09:18:21;;;;;;;9.00;6.57;;;;;;;;;;5059502;27;20108;-47
2024/01/02 09:20:48;;;;;;;7.80;6.30;;;;;;;;;;5067132;27;20028;-48
2024/01/02 09:23:15;;;;;;;9.07;6.25;;;;;;;;;;5100363;27;20019;-52
2024/01/02 09:25:45;;;;;;;9.35;6.78;;;;;;;;;;5075487;27;20032;-61
2024/01/02 09:28:13;;;;;;;10.65;6.50;;;;;;;;;;5122809;27;20023;-62
2024/01/02 09:30:40;;;;;;;7.20;6.10;;;;;;;;;;5108485;27;20095;-56
2024/01/02 09:33:09;;;;;;;10.23;6.68;;;;;;;;;;5120066;27;20019;-53
2024/01/02 09:35:36;;;;;;;8.23;6.07;;;;;;;;;;5065843;27;20049;-57
2024/01/02 09:38:07;;;;;;;12.75;6.20;;;;;;;;;;5061349;28;20025;-58
2024/01/02 09:40:41;;;;;;;9.82;6.05;;;;;;;;;;5061229;28;20325;-60
2024/01/02 09:43:08;;;;;;;12.68;6.30;;;;;;;;;;5061195;28;20021;-59
2024/01/02 09:45:40;;;;;;;10.25;6.40;;;;;;;;;;5084064;27;20039;-50
2024/01/02 09:48:13;;;;;;;11.38;6.25;;;;;;;;;;5021405;28;20026;-55
2024/01/02 09:50:58;;;;;;;11.20;6.22;;;;;;;;;;5042242;28;20314;-54
2024/01/02 09:53:41;;;;;;;9.73;5.93;;;;;;;;;;5061065;28;20068;-58
2024/01/02 09:56:11;;;;;;;11.55;6.68;;;;;;;;;;5060902;28;20017;-60
2024/01/02 09:59:02;;;;;;;8.02;6.20;;;;;;;;;;5061193;28;20071;-55
2024/01/02 10:01:45;;;;;;;6.65;6.05;;;;;;;;;;5125798;27;20311;-53
2024/01/02 10:04:30;;;;;;;8.30;5.80;;;;;;;;;;5145397;27;20026;-56
2024/01/02 10:07:20;;;;;;;7.15;6.20;;;;;;;;;;5144953;27;20023;-60
2024/01/02 10:09:52;;;;;;;8.05;6.25;;;;;;;;;;5145202;27;20196;-61
2024/01/02 10:12:22;;;;;;;6.80;6.00;;;;;;;;;;5144986;27;20022;-53
2024/01/02 10:14:58;;;;;;;10.25;6.50;;;;;;;;;;5145082;27;20091;-59
2024/01/02 10:17:36;;;;;;;10.50;6.10;;;;;;;;;;5145010;27;20019;-60
2024/01/02 10:20:06;;;;;;;11.73;6.05;;;;;;;;;;5110132;27;20239;-55
2024/01/02 10:22:47;;;;;;;10.25;5.88;;;;;;;;;;5095527;28;20015;-51
2024/01/02 10:25:15;;;;;;;7.85;6.00;;;;;;;;;;5074375;27;20088;-49
2024/01/02 10:27:44;;;;;;;8.55;6.25;;;;;;;;;;5083702;28;20027;-49
2024/01/02 10:30:17;;;;;;;11.90;6.45;;;;;;;;;;5148433;27;20015;-51
2024/01/02 10:32:44;;;;;;;8.55;5.80;;;;;;;;;;5148977;27;20025;-55
2024/01/02 10:35:37;;;;;;;8.07;5.63;;;;;;;;;;5122137;27;20025;-52
2024/01/02 10:38:14;;;;;;;7.53;6.18;;;;;;;;;;5065724;28;20340;-51
2024/01/02 10:40:43;;;;;;;7.43;6.05;;;;;;;;;;5064020;28;20090;-53
2024/01/02 10:43:19;;;;;;;7.95;5.88;;;;;;;;;;5063972;28;20070;-56
2024/01/02 10:46:12;;;;;;;10.07;6.45;;;;;;;;;;5063975;28;20081;-52
2024/01/02 10:48:44;;;;;;;8.43;6.30;;;;;;;;;;5104263;27;20050;-49
2024/01/02 10:51:18;;;;;;;9.90;6.40;;;;;;;;;;5148803;27;20019;-49
2024/01/02 10:53:45;;;;;;;10.93;6.75;;;;;;;;;;5148751;27;20047;-56
2024/01/02 10:56:37;;;;;;;13.90;6.38;;;;;;;;;;5148838;27;20304;-60
2024/01/02 10:59:22;;;;;;;12.98;6.95;;;;;;;;;;5148925;27;20019;-53
2024/01/02 11:01:49;;;;;;;14.95;7.05;;;;;;;;;;5148281;27;20086;-53
2024/01/02 11:04:21;;;;;;;11.23;7.03;;;;;;;;;;5148798;27;20241;-50
2024/01/02 11:07:01;;;;;;;10.93;7.00;;;;;;;;;;5025264;28;20312;-53
2024/01/02 11:09:37;;;;;;;10.75;6.82;;;;;;;;;;5024129;28;20034;-58
2024/01/02 11:12:06;;;;;;;14.18;7.03;;;;;;;;;;5031096;28;20028;-52
2024/01/02 11:14:34;;;;;;;15.00;7.40;;;;;;;;;;5043953;28;20025;-60
2024/01/02 11:17:02;;;;;;;12.20;7.07;;;;;;;;;;5043691;28;20054;-61
2024/01/02 11:19:32;;;;;;;22.20;7.97;;;;;;;;;;5043913;28;20022;-51
2024/01/02 11:22:07;;;;;;;18.02;7.50;;;;;;;;;;5038263;28;20022;-48
2024/01/02 11:24:35;;;;;;;17.92;7.53;;;;;;;;;;5024157;28;20041;-56
2024/01/02 11:27:03;;;;;;;13.40;7.80;;;;;;;;;;5023644;28;20025;-52
2024/01/02 11:29:35;;;;;;;22.05;8.05;;;;;;;;;;5023971;28;20093;-54
2024/01/02 11:32:04;;;;;;;14.30;7.90;;;;;;;;;;5023527;28;20318;-57
2024/01/02 11:34:42;;;;;;;23.48;7.88;;;;;;;;;;5023907;28;20337;-55
2024/01/02 11:37:26;;;;;;;13.00;7.65;;;;;;;;;;5022956;28;20318;-58
2024/01/02 11:39:59;;;;;;;14.80;7.30;;;;;;;;;;5022233;28;20055;-59
2024/01/02 11:42:38;;;;;;;10.05;6.65;;;;;;;;;;5041040;28;20117;-60
2024/01/02 11:45:09;;;;;;;11.75;6.68;;;;;;;;;;5041271;28;20081;-56
2024/01/02 11:47:42;;;;;;;11.70;7.15;;;;;;;;;;5041373;28;20029;-57
2024/01/02 11:50:09;;;;;;;11.15;7.10;;;;;;;;;;5041296;28;20088;-55
2024/01/02 11:52:44;;;;;;;12.52;6.78;;;;;;;;;;5041449;28;20057;-58
2024/01/02 11:55:24;;;;;;;8.88;6.43;;;;;;;;;;5042943;28;20028;-53
2024/01/02 11:57:55;;;;;;;10.90;7.03;;;;;;;;;;5042721;28;20097;-61
2024/01/02 12:00:32;;;;;;;11.00;7.28;;;;;;;;;;5042765;28;20313;-55
2024/01/02 12:02:59;;;;;;;13.93;6.90;;;;;;;;;;5042817;28;20029;-60
2024/01/02 12:05:35;;;;;;;11.43;7.03;;;;;;;;;;5042660;28;20222;-54
2024/01/02 12:08:04;;;;;;;10.02;7.25;;;;;;;;;;5042807;28;20026;-59
2024/01/02 12:10:31;;;;;;;14.60;7.38;;;;;;;;;;5042420;28;20250;-56
2024/01/02 12:13:08;;;;;;;17.30;7.50;;;;;;;;;;5042905;28;20088;-62
2024/01/02 12:15:35;;;;;;;14.13;7.30;;;;;;;;;;5042401;28;20026;-55
2024/01/02 12:18:06;;;;;;;20.25;7.65;;;;;;;;;;5043043;28;20057;-55
2024/01/02 12:20:42;;;;;;;15.38;7.03;;;;;;;;;;5042453;28;20080;-59
2024/01/02 12:23:08;;;;;;;42.60;8.60;;;;;;;;;;5042758;28;20197;-61
2024/01/02 12:25:35;;;;;;;15.50;7.20;;;;;;;;;;5042477;28;20026;-57
2024/01/02 12:28:03;;;;;;;17.77;7.22;;;;;;;;;;5042405;28;20026;-55
2024/01/02 12:30:43;;;;;;;14.52;7.38;;;;;;;;;;5042353;28;20026;-57
2024/01/02 12:33:23;;;;;;;15.43;7.63;;;;;;;;;;5042412;28;20066;-55
2024/01/02 12:35:53;;;;;;;13.02;7.10;;;;;;;;;;5042066;28;20021;-58
2024/01/02 12:38:24;;;;;;;11.38;7.13;;;;;;;;;;5042433;28;20045;-55
2024/01/02 12:40:52;;;;;;;16.80;6.75;;;;;;;;;;5042383;28;20017;-55
2024/01/02 12:43:20;;;;;;;14.10;7.22;;;;;;;;;;5042361;28;20140;-59
2024/01/02 12:45:52;;;;;;;14.23;6.90;;;;;;;;;;5042236;28;20022;-55
2024/01/02 12:48:22;;;;;;;9.75;6.57;;;;;;;;;;5040398;28;20029;-57
2024/01/02 12:50:50;;;;;;;14.02;7.00;;;;;;;;;;5032233;28;20090;-60
2024/01/02 12:53:18;;;;;;;12.40;6.93;;;;;;;;;;5037285;28;20338;-57
2024/01/02 12:55:49;;;;;;;14.88;6.80;;;;;;;;;;5021917;28;20280;-55
2024/01/02 12:58:16;;;;;;;9.65;6.40;;;;;;;;;;5022434;28;20049;-59
2024/01/02 13:00:43;;;;;;;8.13;6.78;;;;;;;;;;5033840;28;20028;-58
2024/01/02 13:03:14;;;;;;;11.82;6.38;;;;;;;;;;5041857;28;20022;-54
2024/01/02 13:05:41;;;;;;;10.32;6.88;;;;;;;;;;5041803;28;20389;-54
2024/01/02 13:08:15;;;;;;;14.35;7.18;;;;;;;;;;5036819;28;20037;-56
2024/01/02 13:10:42;;;;;;;11.65;6.97;;;;;;;;;;5036006;28;20029;-62
2024/01/02 13:13:09;;;;;;;11.55;6.93;;;;;;;;;;5035506;28;20029;-56
2024/01/02 13:15:37;;;;;;;11.52;6.75;;;;;;;;;;5029815;28;20060;-57
2024/01/02 13:18:04;;;;;;;10.63;6.88;;;;;;;;;;5041803;28;20069;-59
2024/01/02 13:20:31;;;;;;;11.52;6.78;;;;;;;;;;5041697;28;20014;-59
2024/01/02 13:22:57;;;;;;;11.60;7.13;;;;;;;;;;5040445;28;20031;-54
2024/01/02 13:25:25;;;;;;;10.60;6.45;;;;;;;;;;5021897;28;20152;-56
2024/01/02 13:27:55;;;;;;;12.05;6.97;;;;;;;;;;5021927;28;20240;-58
2024/01/02 13:30:56;;;;;;;10.85;6.90;;;;;;;;;;5021482;28;20026;-57
2024/01/02 13:33:23;;;;;;;10.10;6.78;;;;;;;;;;4989853;28;20230;-55
2024/01/02 13:36:04;;;;;;;7.72;6.35;;;;;;;;;;5024070;28;20025;-61
2024/01/02 13:38:31;;;;;;;7.43;6.68;;;;;;;;;;5041603;28;20021;-59
2024/01/02 13:41:04;;;;;;;8.07;6.70;;;;;;;;;;5041206;28;20062;-55
2024/01/02 13:43:34;;;;;;;12.00;6.32;;;;;;;;;;5041427;28;20080;-57
2024/01/02 13:46:14;;;;;;;13.32;6.63;;;;;;;;;;5041362;28;20239;-60
2024/01/02 13:48:52;;;;;;;10.57;7.03;;;;;;;;;;5041587;28;20021;-61
2024/01/02 13:51:19;;;;;;;10.65;6.68;;;;;;;;;;5041223;28;20021;-63
2024/01/02 13:53:59;;;;;;;9.30;6.70;;;;;;;;;;5031199;28;20054;-54
2024/01/02 13:56:26;;;;;;;9.43;6.80;;;;;;;;;;5021275;28;20362;-55
2024/01/02 13:58:56;;;;;;;11.00;6.97;;;;;;;;;;5021583;28;20049;-54
2024/01/02 14:01:33;;;;;;;13.43;7.20;;;;;;;;;;5021301;28;20028;-60
2024/01/02 14:04:00;;;;;;;8.60;6.03;;;;;;;;;;5020571;28;20037;-56
2024/01/02 14:06:27;;;;;;;8.68;5.90;;;;;;;;;;5020910;28;20275;-57
2024/01/02 14:09:16;;;;;;;7.63;6.00;;;;;;;;;;5021351;28;20034;-60
2024/01/02 14:12:01;;;;;;;10.85;6.10;;;;;;;;;;5021132;28;20033;-60
2024/01/02 14:14:48;;;;;;;11.55;6.45;;;;;;;;;;5021496;28;20033;-56
2024/01/02 14:17:22;;;;;;;10.32;5.63;;;;;;;;;;5026280;28;20081;-54
2024/01/02 14:19:50;;;;;;;11.15;5.55;;;;;;;;;;5036380;28;20021;-57
2024/01/02 14:22:29;;;;;;;6.28;5.25;;;;;;;;;;5055115;28;20336;-56
2024/01/02 14:25:14;;;;;;;8.95;5.55;;;;;;;;;;5138034;28;20023;-61
2024/01/02 14:27:43;;;;;;;5.65;5.03;;;;;;;;;;5144993;28;20023;-61
2024/01/02 14:30:23;;;;;;;8.80;5.00;;;;;;;;;;5145016;27;20211;-61
2024/01/02 14:33:19;;;;;;;8.02;4.97;;;;;;;;;;5039822;28;20041;-57
2024/01/02 14:35:51;;;;;;;6.30;4.40;;;;;;;;;;4987711;28;20066;-57
2024/01/02 14:38:18;;;;;;;6.68;5.00;;;;;;;;;;5041196;28;20313;-56
2024/01/02 14:40:49;;;;;;;6.68;4.82;;;;;;;;;;5033191;28;20062;-61
2024/01/02 14:43:23;;;;;;;12.00;4.90;;;;;;;;;;5032194;28;20281;-60